aviador You're here:

OEMA Decoded Metar

MADINAH in SAUDI ARABIA
Report Time2018-02-20 13:00:00
UTC Time2018-02-20 13:54:14
Flight Rules vfr VFR
Wind200° at 06 kt
W.Decomp.*RWY 18: 5.7 kt HW 1.8 kt RCW
RWY 17: 5.3 kt HW 2.7 kt RCW
W.Rank200° ranks 25
Current wind is below 200° avg. (6.9)
Visibility9999 m
Phenomena:N/A
Clouds:N/A
Expected CloudBase > 11,200 ft AGL from Temp-Dew spread
CeilingNone
Temp28°C (ISA +17)
Dew Point00°C (16% RH)
Heat Index26.7°C
AAT23.8°C
QNH1011 hPa
Density Alt4,183 ft
Elevation2,070 ft
Report Wrong Elevation
Raw Report
METAR OEMA 201300Z 20006KT CAVOK 28/00 Q1011 NOSIG=

Extra information for OEMA:More info

Metar Taf Metar & Taf Last 4 Metars F.Rules Stats Wind Profile Meteogram Temp Stats Airport Information Weather charts Add Link Nearby VenuesMetar ALERT Operation Metar Decoded Social comments